createdAt,value
2018-05-21T00:01:07.944Z,13.50
2018-05-21T00:03:39.155Z,13.40
2018-05-21T00:06:11.093Z,13.40
2018-05-21T00:08:42.308Z,13.40
2018-05-21T00:11:13.518Z,13.30
2018-05-21T00:13:44.974Z,13.30
2018-05-21T00:16:16.155Z,13.20
2018-05-21T00:18:47.395Z,13.20
2018-05-21T00:21:18.880Z,13.20
2018-05-21T00:23:50.994Z,13.10
2018-05-21T00:26:22.163Z,13.10
2018-05-21T00:28:53.449Z,13.10
2018-05-21T00:31:26.787Z,13.10
2018-05-21T00:33:57.994Z,13.10
2018-05-21T00:36:29.920Z,13.00
2018-05-21T00:39:01.129Z,12.90
2018-05-21T00:41:32.330Z,12.90
2018-05-21T00:44:04.268Z,12.80
2018-05-21T00:46:35.489Z,12.80
2018-05-21T00:49:06.676Z,12.80
2018-05-21T00:51:38.685Z,12.80
2018-05-21T00:54:09.931Z,12.80
2018-05-21T00:56:41.136Z,12.80
2018-05-21T00:59:12.709Z,12.80
2018-05-21T01:01:43.870Z,12.80
2018-05-21T01:04:15.331Z,12.70
2018-05-21T01:06:46.522Z,12.60
2018-05-21T01:09:18.106Z,12.60
2018-05-21T01:11:50.240Z,12.60
2018-05-21T01:14:22.212Z,12.60
2018-05-21T01:16:53.722Z,12.50
2018-05-21T01:19:24.937Z,12.50
2018-05-21T01:21:56.489Z,12.50
2018-05-21T01:24:27.701Z,12.50
2018-05-21T01:26:59.666Z,12.40
2018-05-21T01:29:30.873Z,12.40
2018-05-21T01:32:04.776Z,12.40
2018-05-21T01:34:36.191Z,12.30
2018-05-21T01:37:07.389Z,12.40
2018-05-21T01:39:39.379Z,12.30
2018-05-21T01:42:10.583Z,12.30
2018-05-21T01:44:41.814Z,12.20
2018-05-21T01:47:13.152Z,12.10
2018-05-21T01:49:44.330Z,12.10
2018-05-21T01:52:15.835Z,12.00
2018-05-21T01:54:47.043Z,12.00
2018-05-21T01:57:18.227Z,11.90
2018-05-21T01:59:49.426Z,11.90
2018-05-21T02:02:21.163Z,11.80
2018-05-21T02:04:52.363Z,11.80
2018-05-21T02:07:23.594Z,11.80
2018-05-21T02:09:54.795Z,11.80
2018-05-21T02:12:26.769Z,11.80
2018-05-21T02:14:58.043Z,11.80
2018-05-21T02:17:29.246Z,11.80
2018-05-21T02:20:01.302Z,11.80
2018-05-21T02:22:32.505Z,11.80
2018-05-21T02:25:04.152Z,11.80
2018-05-21T02:27:35.327Z,11.70
2018-05-21T02:30:06.574Z,11.80
2018-05-21T02:32:37.867Z,11.80
2018-05-21T02:35:09.437Z,11.80
2018-05-21T02:37:40.655Z,11.80
2018-05-21T02:40:11.853Z,11.80
2018-05-21T02:42:43.052Z,11.70
2018-05-21T02:45:14.287Z,11.70
2018-05-21T02:47:45.504Z,11.70
2018-05-21T02:50:16.762Z,11.70
2018-05-21T02:52:48.745Z,11.70
2018-05-21T02:55:19.987Z,11.70
2018-05-21T02:57:51.437Z,11.70
2018-05-21T03:00:22.637Z,11.70
2018-05-21T03:02:55.319Z,11.60
2018-05-21T03:05:26.705Z,11.60
2018-05-21T03:07:57.875Z,11.70
2018-05-21T03:10:29.098Z,11.70
2018-05-21T03:13:00.351Z,11.60
2018-05-21T03:15:31.560Z,11.70
2018-05-21T03:18:03.518Z,11.60
2018-05-21T03:20:35.635Z,11.60
2018-05-21T03:23:06.830Z,11.50
2018-05-21T03:25:38.792Z,11.60
2018-05-21T03:28:10.741Z,11.60
2018-05-21T03:30:41.930Z,11.50
2018-05-21T03:33:13.174Z,11.60
2018-05-21T03:35:44.355Z,11.60
2018-05-21T03:38:15.587Z,11.60
2018-05-21T03:40:46.862Z,11.60
2018-05-21T03:43:18.827Z,11.60
2018-05-21T03:45:50.993Z,11.60
2018-05-21T03:48:22.614Z,11.60
2018-05-21T03:50:53.814Z,11.70
2018-05-21T03:53:25.121Z,11.70
2018-05-21T03:55:56.534Z,11.60
2018-05-21T03:58:40.148Z,11.70
2018-05-21T04:01:37.628Z,11.70
2018-05-21T04:04:08.796Z,11.70
2018-05-21T04:06:40.004Z,11.70
2018-05-21T04:09:11.161Z,11.80
2018-05-21T04:11:42.373Z,11.70
2018-05-21T04:14:13.681Z,11.80
2018-05-21T04:16:44.916Z,11.90
2018-05-21T04:19:16.142Z,11.90
2018-05-21T04:21:47.381Z,11.90
2018-05-21T04:24:18.541Z,12.00
2018-05-21T04:26:49.730Z,12.00
2018-05-21T04:29:21.701Z,12.10
2018-05-21T04:31:52.902Z,12.00
2018-05-21T04:34:24.924Z,12.20
2018-05-21T04:36:56.135Z,12.20
2018-05-21T04:39:27.553Z,12.20
2018-05-21T04:41:58.745Z,12.30
2018-05-21T04:44:30.285Z,12.30
2018-05-21T04:47:02.284Z,12.60
2018-05-21T04:49:33.469Z,12.50
2018-05-21T04:52:05.449Z,12.70
2018-05-21T04:54:37.394Z,12.80
2018-05-21T04:57:08.598Z,12.80
2018-05-21T04:59:39.813Z,12.90
2018-05-21T05:02:11.058Z,12.90
2018-05-21T05:04:42.656Z,13.00
2018-05-21T05:07:13.852Z,13.00
2018-05-21T05:09:45.074Z,13.10
2018-05-21T05:12:17.011Z,13.40
2018-05-21T05:14:49.454Z,13.40
2018-05-21T05:17:20.648Z,13.60
2018-05-21T05:19:52.598Z,13.80
2018-05-21T05:22:23.753Z,13.80
2018-05-21T05:24:55.709Z,13.90
2018-05-21T05:27:26.882Z,13.90
2018-05-21T05:29:58.125Z,13.90
2018-05-21T05:32:29.320Z,13.90
2018-05-21T05:35:00.657Z,14.00
2018-05-21T05:37:31.831Z,14.10
2018-05-21T05:40:03.823Z,14.30
2018-05-21T05:42:35.036Z,14.30
2018-05-21T05:45:07.017Z,14.50
2018-05-21T05:47:38.937Z,14.60
2018-05-21T05:50:10.187Z,14.60
2018-05-21T05:52:41.359Z,14.70
2018-05-21T05:55:12.645Z,14.70
2018-05-21T05:57:44.133Z,14.80
2018-05-21T06:00:15.325Z,14.90
2018-05-21T06:02:46.562Z,15.00
2018-05-21T06:05:17.772Z,15.10
2018-05-21T06:07:48.945Z,15.10
2018-05-21T06:10:20.170Z,15.20
2018-05-21T06:12:51.548Z,15.30
2018-05-21T06:15:22.870Z,15.40
2018-05-21T06:17:54.128Z,15.40
2018-05-21T06:20:25.332Z,15.50
2018-05-21T06:22:56.821Z,15.60
2018-05-21T06:25:28.043Z,15.60
2018-05-21T06:28:00.033Z,15.70
2018-05-21T06:30:31.229Z,15.70
2018-05-21T06:33:02.835Z,15.80
2018-05-21T06:35:34.034Z,15.80
2018-05-21T06:38:05.286Z,15.90
2018-05-21T06:40:37.591Z,16.10
2018-05-21T06:43:08.808Z,16.10
2018-05-21T06:45:40.765Z,16.30
2018-05-21T06:48:12.744Z,16.50
2018-05-21T06:50:43.933Z,16.40
2018-05-21T06:53:15.174Z,16.50
2018-05-21T06:55:47.861Z,16.50
2018-05-21T06:58:19.087Z,16.60
2018-05-21T07:00:50.375Z,16.80
2018-05-21T07:03:22.290Z,16.90
2018-05-21T07:05:53.531Z,16.90
2018-05-21T07:08:24.700Z,16.90
2018-05-21T07:10:55.924Z,17.00
2018-05-21T07:13:27.129Z,17.00
2018-05-21T07:15:59.095Z,17.30
2018-05-21T07:18:30.324Z,17.20
2018-05-21T07:21:02.279Z,17.50
2018-05-21T07:23:34.258Z,17.60
2018-05-21T07:26:06.510Z,17.60
2018-05-21T07:28:38.448Z,17.70
2018-05-21T07:31:10.473Z,17.80
2018-05-21T07:33:41.650Z,17.80
2018-05-21T07:36:12.994Z,17.90
2018-05-21T07:38:44.451Z,18.00
2018-05-21T07:41:16.452Z,18.10
2018-05-21T07:43:47.637Z,18.00
2018-05-21T07:46:18.988Z,18.10
2018-05-21T07:48:50.168Z,18.20
2018-05-21T07:51:22.265Z,18.20
2018-05-21T07:53:53.401Z,18.20
2018-05-21T07:56:25.004Z,18.20
2018-05-21T07:58:56.201Z,18.30
2018-05-21T08:01:27.504Z,18.40
2018-05-21T08:03:59.455Z,18.50
2018-05-21T08:06:31.108Z,18.50
2018-05-21T08:09:03.020Z,18.70
2018-05-21T08:11:34.953Z,18.90
2018-05-21T08:14:07.002Z,19.00
2018-05-21T08:16:39.420Z,19.10
2018-05-21T08:19:10.654Z,19.00
2018-05-21T08:21:41.923Z,19.10
2018-05-21T08:24:13.188Z,19.20
2018-05-21T08:26:44.457Z,19.30
2018-05-21T08:29:15.842Z,19.40
2018-05-21T08:31:47.080Z,19.40
2018-05-21T08:34:18.642Z,19.50
2018-05-21T08:36:50.529Z,19.60
2018-05-21T08:39:22.538Z,19.70
2018-05-21T08:41:54.523Z,19.70
2018-05-21T08:44:25.808Z,19.70
2018-05-21T08:46:56.994Z,19.70
2018-05-21T08:49:28.582Z,20.30
2018-05-21T08:51:59.743Z,20.00
2018-05-21T08:54:30.967Z,20.20
2018-05-21T08:57:03.730Z,20.10
2018-05-21T08:59:34.953Z,20.10
2018-05-21T09:02:06.214Z,20.20
2018-05-21T09:04:37.362Z,20.30
2018-05-21T09:07:08.580Z,20.20
2018-05-21T09:09:40.555Z,20.30
2018-05-21T09:12:11.788Z,20.30
2018-05-21T09:14:44.104Z,20.40
2018-05-21T09:17:16.841Z,20.40
2018-05-21T09:19:48.821Z,20.70
2018-05-21T09:22:20.115Z,20.70
2018-05-21T09:24:52.844Z,20.80
2018-05-21T09:27:24.034Z,20.80
2018-05-21T09:29:55.550Z,20.80
2018-05-21T09:32:26.835Z,20.70
2018-05-21T09:34:58.059Z,20.80
2018-05-21T09:37:29.324Z,20.80
2018-05-21T09:40:00.511Z,20.80
2018-05-21T09:42:31.727Z,20.90
2018-05-21T09:45:03.926Z,21.30
2018-05-21T09:47:35.287Z,21.30
2018-05-21T09:50:06.669Z,21.30
2018-05-21T09:52:37.867Z,21.20
2018-05-21T09:55:09.132Z,21.20
2018-05-21T09:57:40.400Z,21.20
2018-05-21T10:00:16.025Z,21.20
2018-05-21T10:02:47.196Z,21.20
2018-05-21T10:05:18.407Z,21.20
2018-05-21T10:07:49.626Z,21.30
2018-05-21T10:10:20.856Z,21.50
2018-05-21T10:12:52.791Z,21.50
2018-05-21T10:15:24.091Z,21.50
2018-05-21T10:17:55.398Z,21.40
2018-05-21T10:20:33.613Z,21.40
2018-05-21T10:23:05.761Z,21.60
2018-05-21T10:25:37.752Z,21.60
2018-05-21T10:28:08.952Z,21.60
2018-05-21T10:30:40.218Z,21.60
2018-05-21T10:33:11.386Z,21.80
2018-05-21T10:35:43.365Z,21.60
2018-05-21T10:38:14.645Z,21.60
2018-05-21T10:40:45.826Z,21.60
2018-05-21T10:43:17.805Z,22.00
2018-05-21T10:45:49.022Z,22.00
2018-05-21T10:48:21.387Z,22.40
2018-05-21T10:50:52.607Z,22.40
2018-05-21T10:53:23.886Z,22.50
2018-05-21T10:55:55.872Z,22.50
2018-05-21T10:58:28.442Z,22.60
2018-05-21T11:00:59.651Z,22.20
2018-05-21T11:03:30.844Z,22.20
2018-05-21T11:06:02.130Z,22.40
2018-05-21T11:08:33.348Z,22.40
2018-05-21T11:11:04.585Z,22.40
2018-05-21T11:13:35.793Z,22.50
2018-05-21T11:16:07.111Z,22.30
2018-05-21T11:18:38.710Z,22.40
2018-05-21T11:21:09.886Z,22.50
2018-05-21T11:23:41.306Z,22.40
2018-05-21T11:26:12.493Z,22.40
2018-05-21T11:28:43.724Z,22.40
2018-05-21T11:31:15.788Z,22.30
2018-05-21T11:33:47.094Z,22.30
2018-05-21T11:36:18.923Z,22.30
2018-05-21T11:38:50.957Z,22.70
2018-05-21T11:41:22.172Z,22.60
2018-05-21T11:43:53.347Z,23.00
2018-05-21T11:46:24.607Z,23.10
2018-05-21T11:48:55.739Z,23.20
2018-05-21T11:51:28.466Z,22.90
2018-05-21T11:53:59.676Z,22.90
2018-05-21T11:56:31.696Z,22.80
2018-05-21T11:59:03.075Z,22.70
2018-05-21T12:01:34.265Z,22.80
2018-05-21T12:04:05.479Z,23.00
2018-05-21T12:06:36.707Z,22.80
2018-05-21T12:09:08.064Z,22.90
2018-05-21T12:11:39.278Z,22.90
2018-05-21T12:14:10.522Z,22.90
2018-05-21T12:16:41.794Z,23.00
2018-05-21T12:19:13.091Z,23.00
2018-05-21T12:21:44.428Z,23.10
2018-05-21T12:24:15.655Z,23.00
2018-05-21T12:26:47.601Z,22.70
2018-05-21T12:29:19.573Z,22.60
2018-05-21T12:31:50.818Z,22.60
2018-05-21T12:34:22.738Z,22.70
2018-05-21T12:36:53.940Z,22.70
2018-05-21T12:39:25.166Z,22.70
2018-05-21T12:41:57.133Z,22.70
2018-05-21T12:44:28.331Z,22.70
2018-05-21T12:46:59.539Z,22.80
2018-05-21T12:49:30.743Z,22.70
2018-05-21T12:52:01.959Z,22.70
2018-05-21T12:54:33.155Z,22.80
2018-05-21T12:57:05.109Z,22.70
2018-05-21T12:59:38.937Z,22.60
2018-05-21T13:02:10.705Z,22.60
2018-05-21T13:04:41.940Z,22.60
2018-05-21T13:07:13.174Z,22.60
2018-05-21T13:09:44.393Z,22.80
2018-05-21T13:12:15.630Z,22.70
2018-05-21T13:14:46.818Z,22.90
2018-05-21T13:17:18.083Z,23.10
2018-05-21T13:19:49.389Z,23.30
2018-05-21T13:22:20.601Z,23.40
2018-05-21T13:24:51.799Z,23.60
2018-05-21T13:27:23.046Z,23.40
2018-05-21T13:29:54.234Z,23.40
2018-05-21T13:32:25.449Z,23.50
2018-05-21T13:34:56.705Z,23.50
2018-05-21T13:37:27.935Z,23.60
2018-05-21T13:39:59.178Z,23.60
2018-05-21T13:42:30.408Z,23.80
2018-05-21T13:45:01.679Z,23.90
2018-05-21T13:47:33.717Z,23.80
2018-05-21T13:50:04.924Z,23.80
2018-05-21T13:52:36.348Z,23.80
2018-05-21T13:55:07.599Z,23.60
2018-05-21T13:57:38.866Z,23.80
2018-05-21T14:00:10.875Z,23.70
2018-05-21T14:02:42.604Z,23.70
2018-05-21T14:05:13.845Z,23.80
2018-05-21T14:07:46.008Z,24.20
2018-05-21T14:10:17.958Z,24.30
2018-05-21T14:12:49.907Z,24.30
2018-05-21T14:15:21.095Z,24.30
2018-05-21T14:17:52.499Z,24.40
2018-05-21T14:20:23.801Z,24.80
2018-05-21T14:22:55.024Z,24.80
2018-05-21T14:25:26.218Z,24.70
2018-05-21T14:27:57.434Z,24.50
2018-05-21T14:30:29.961Z,24.40
2018-05-21T14:33:01.953Z,24.00
2018-05-21T14:35:33.176Z,23.80
2018-05-21T14:38:05.144Z,23.80
2018-05-21T14:40:38.349Z,23.80
2018-05-21T14:43:09.699Z,23.80
2018-05-21T14:45:40.933Z,23.70
2018-05-21T14:48:12.487Z,23.60
2018-05-21T14:50:43.696Z,23.70
2018-05-21T14:53:14.920Z,23.70
2018-05-21T14:55:46.171Z,23.80
2018-05-21T14:58:17.374Z,24.10
2018-05-21T15:00:52.077Z,23.80
2018-05-21T15:03:23.328Z,23.70
2018-05-21T15:05:54.997Z,23.70
2018-05-21T15:08:26.155Z,23.80
2018-05-21T15:10:57.483Z,23.80
2018-05-21T15:13:28.681Z,24.20
2018-05-21T15:16:00.749Z,24.10
2018-05-21T15:18:31.979Z,24.10
2018-05-21T15:21:03.297Z,23.80
2018-05-21T15:23:34.478Z,23.70
2018-05-21T15:26:05.709Z,23.70
2018-05-21T15:28:36.912Z,23.70
2018-05-21T15:31:08.149Z,23.80
2018-05-21T15:33:39.433Z,23.70
2018-05-21T15:36:10.694Z,23.60
2018-05-21T15:38:42.007Z,23.50
2018-05-21T15:41:13.337Z,23.40
2018-05-21T15:43:44.555Z,23.00
2018-05-21T15:46:16.639Z,23.10
2018-05-21T15:48:48.120Z,23.10
2018-05-21T15:51:19.355Z,23.20
2018-05-21T15:53:50.562Z,23.40
2018-05-21T15:56:21.757Z,23.50
2018-05-21T15:58:53.006Z,23.60
2018-05-21T16:01:24.222Z,23.80
2018-05-21T16:03:55.401Z,23.80
2018-05-21T16:06:26.633Z,23.80
2018-05-21T16:08:57.886Z,23.50
2018-05-21T16:11:29.112Z,23.20
2018-05-21T16:14:00.303Z,23.30
2018-05-21T16:16:32.287Z,23.30
2018-05-21T16:19:03.520Z,23.30
2018-05-21T16:21:34.748Z,23.30
2018-05-21T16:24:05.993Z,23.20
2018-05-21T16:26:37.495Z,23.30
2018-05-21T16:29:08.711Z,23.40
2018-05-21T16:31:39.951Z,23.40
2018-05-21T16:34:11.928Z,23.40
2018-05-21T16:36:43.131Z,23.40
2018-05-21T16:39:14.360Z,23.30
2018-05-21T16:41:45.547Z,23.30
2018-05-21T16:44:16.799Z,23.20
2018-05-21T16:46:48.031Z,23.10
2018-05-21T16:49:19.493Z,23.10
2018-05-21T16:51:50.695Z,23.00
2018-05-21T16:54:22.780Z,22.90
2018-05-21T16:56:54.764Z,23.00
2018-05-21T16:59:26.009Z,23.00
2018-05-21T17:01:57.223Z,23.00
2018-05-21T17:04:29.209Z,22.90
2018-05-21T17:07:00.463Z,22.90
2018-05-21T17:09:32.808Z,22.70
2018-05-21T17:12:04.794Z,22.70
2018-05-21T17:14:35.979Z,22.60
2018-05-21T17:17:07.221Z,22.60
2018-05-21T17:19:38.442Z,22.60
2018-05-21T17:22:09.741Z,22.60
2018-05-21T17:24:40.891Z,22.50
2018-05-21T17:27:12.105Z,22.50
2018-05-21T17:29:44.837Z,22.40
2018-05-21T17:32:16.088Z,22.40
2018-05-21T17:34:47.539Z,22.30
2018-05-21T17:37:18.752Z,22.20
2018-05-21T17:39:50.719Z,22.20
2018-05-21T17:42:23.627Z,22.10
2018-05-21T17:44:54.781Z,22.10
2018-05-21T17:47:27.942Z,22.10
2018-05-21T17:49:59.131Z,22.10
2018-05-21T17:52:30.407Z,22.00
2018-05-21T17:55:02.600Z,21.90
2018-05-21T17:57:33.762Z,21.90
2018-05-21T18:00:05.426Z,21.90
2018-05-21T18:02:36.644Z,21.80
2018-05-21T18:05:08.097Z,21.80
2018-05-21T18:07:39.277Z,21.70
2018-05-21T18:10:10.520Z,21.70
2018-05-21T18:12:41.696Z,21.60
2018-05-21T18:15:13.649Z,21.50
2018-05-21T18:17:45.623Z,21.50
2018-05-21T18:20:17.553Z,21.50
2018-05-21T18:22:51.359Z,21.40
2018-05-21T18:25:24.073Z,21.40
2018-05-21T18:27:55.347Z,21.40
2018-05-21T18:30:26.553Z,21.40
2018-05-21T18:32:57.806Z,21.30
2018-05-21T18:35:29.733Z,21.30
2018-05-21T18:38:01.025Z,21.20
2018-05-21T18:40:32.285Z,21.20
2018-05-21T18:43:04.376Z,21.00
2018-05-21T18:45:35.888Z,21.00
2018-05-21T18:48:07.063Z,21.00
2018-05-21T18:50:38.684Z,20.90
2018-05-21T18:53:09.891Z,20.80
2018-05-21T18:55:41.119Z,20.80
2018-05-21T18:58:13.844Z,20.70
2018-05-21T19:00:45.015Z,20.70
2018-05-21T19:03:16.266Z,20.60
2018-05-21T19:05:48.021Z,20.50
2018-05-21T19:08:20.011Z,20.40
2018-05-21T19:10:51.941Z,20.30
2018-05-21T19:13:23.143Z,20.30
2018-05-21T19:15:54.334Z,20.20
2018-05-21T19:18:25.548Z,20.20
2018-05-21T19:20:56.877Z,20.20
2018-05-21T19:23:28.178Z,20.10
2018-05-21T19:25:59.333Z,20.10
2018-05-21T19:28:32.033Z,19.90
2018-05-21T19:31:03.949Z,19.90
2018-05-21T19:33:35.245Z,19.90
2018-05-21T19:36:06.508Z,19.80
2018-05-21T19:38:37.739Z,19.90
2018-05-21T19:41:10.341Z,19.80
2018-05-21T19:43:41.902Z,19.80
2018-05-21T19:46:13.668Z,19.70
2018-05-21T19:48:45.192Z,19.60
2018-05-21T19:51:16.443Z,19.60
2018-05-21T19:53:47.702Z,19.50
2018-05-21T19:56:18.900Z,19.50
2018-05-21T19:58:50.949Z,19.40
2018-05-21T20:01:24.178Z,19.40
2018-05-21T20:03:55.831Z,19.30
2018-05-21T20:06:27.069Z,19.30
2018-05-21T20:08:58.305Z,19.20
2018-05-21T20:11:29.580Z,19.20
2018-05-21T20:14:00.814Z,19.20
2018-05-21T20:16:32.143Z,19.20
2018-05-21T20:19:03.390Z,19.10
2018-05-21T20:21:35.321Z,19.10
2018-05-21T20:24:06.872Z,19.10
2018-05-21T20:26:39.432Z,19.00
2018-05-21T20:29:12.169Z,19.00
2018-05-21T20:31:43.493Z,19.00
2018-05-21T20:34:14.701Z,18.90
2018-05-21T20:36:45.876Z,18.90
2018-05-21T20:39:17.838Z,18.80
2018-05-21T20:41:49.845Z,18.70
2018-05-21T20:44:21.127Z,18.70
2018-05-21T20:46:53.132Z,18.60
2018-05-21T20:49:24.296Z,18.60
2018-05-21T20:51:55.612Z,18.60
2018-05-21T20:54:26.839Z,18.50
2018-05-21T20:56:58.750Z,18.50
2018-05-21T20:59:30.031Z,18.40
2018-05-21T21:02:01.979Z,18.30
2018-05-21T21:04:34.029Z,18.20
2018-05-21T21:07:05.227Z,18.20
2018-05-21T21:09:36.728Z,18.10
2018-05-21T21:12:07.894Z,18.10
2018-05-21T21:14:39.835Z,18.00
2018-05-21T21:17:11.031Z,18.10
2018-05-21T21:19:42.280Z,18.00
2018-05-21T21:22:13.467Z,17.90
2018-05-21T21:24:44.899Z,17.90
2018-05-21T21:27:16.450Z,17.90
2018-05-21T21:29:47.628Z,17.90
2018-05-21T21:32:19.625Z,17.80
2018-05-21T21:34:51.529Z,17.80
2018-05-21T21:37:22.795Z,17.70
2018-05-21T21:39:54.329Z,17.70
2018-05-21T21:42:25.503Z,17.70
2018-05-21T21:44:57.550Z,17.70
2018-05-21T21:47:29.486Z,17.60
2018-05-21T21:50:01.117Z,17.60
2018-05-21T21:52:32.317Z,17.60
2018-05-21T21:55:04.525Z,17.50
2018-05-21T21:57:35.718Z,17.50
2018-05-21T22:00:07.709Z,17.40
2018-05-21T22:02:39.046Z,17.30
2018-05-21T22:05:11.112Z,17.20
2018-05-21T22:07:43.050Z,17.10
2018-05-21T22:10:14.451Z,17.10
2018-05-21T22:12:45.642Z,17.10
2018-05-21T22:15:17.470Z,17.10
2018-05-21T22:17:48.818Z,17.00
2018-05-21T22:20:20.008Z,17.00
2018-05-21T22:22:51.245Z,17.00
2018-05-21T22:25:23.270Z,17.00
2018-05-21T22:27:54.703Z,16.90
2018-05-21T22:30:25.893Z,16.90
2018-05-21T22:32:57.119Z,16.90
2018-05-21T22:35:29.452Z,16.70
2018-05-21T22:38:00.638Z,16.70
2018-05-21T22:40:32.050Z,16.70
2018-05-21T22:43:03.273Z,16.70
2018-05-21T22:45:35.360Z,16.70
2018-05-21T22:48:06.622Z,16.60
2018-05-21T22:50:37.826Z,16.50
2018-05-21T22:53:09.052Z,16.50
2018-05-21T22:55:40.271Z,16.50
2018-05-21T22:58:11.673Z,16.50
2018-05-21T23:00:42.927Z,16.40
2018-05-21T23:03:14.379Z,16.30
2018-05-21T23:05:45.557Z,16.30
2018-05-21T23:08:17.517Z,16.20
2018-05-21T23:10:48.717Z,16.20
2018-05-21T23:13:21.043Z,16.20
2018-05-21T23:15:52.974Z,16.30
2018-05-21T23:18:24.609Z,16.20
2018-05-21T23:20:55.801Z,16.30
2018-05-21T23:23:27.019Z,16.30
2018-05-21T23:25:58.219Z,16.20
2018-05-21T23:28:29.469Z,16.10
2018-05-21T23:31:00.683Z,16.10
2018-05-21T23:33:32.603Z,16.00
2018-05-21T23:36:03.834Z,16.10
2018-05-21T23:38:35.065Z,16.00
2018-05-21T23:41:06.625Z,16.00
2018-05-21T23:43:37.831Z,16.00
2018-05-21T23:46:10.755Z,16.00
2018-05-21T23:48:41.991Z,16.00
2018-05-21T23:51:20.034Z,15.90
2018-05-21T23:53:52.204Z,15.80
2018-05-21T23:56:23.451Z,15.80
2018-05-21T23:58:54.726Z,15.80
